sensor_id;sensor_type;location;lat;lon;timestamp;temperature;humidity
52435;DHT22;38354;52.892;6.148;2024-03-23T05:01:45;4.90;99.90
52435;DHT22;38354;52.892;6.148;2024-03-23T05:04:10;4.80;99.90
52435;DHT22;38354;52.892;6.148;2024-03-23T05:06:36;4.80;99.90
52435;DHT22;38354;52.892;6.148;2024-03-23T05:09:02;4.80;99.90
52435;DHT22;38354;52.892;6.148;2024-03-23T05:11:32;4.80;99.90
52435;DHT22;38354;52.892;6.148;2024-03-23T05:13:58;4.80;99.90
52435;DHT22;38354;52.892;6.148;2024-03-23T05:16:23;4.80;99.90
52435;DHT22;38354;52.892;6.148;2024-03-23T05:18:49;4.80;99.90
52435;DHT22;38354;52.892;6.148;2024-03-23T05:21:14;4.80;99.90
52435;DHT22;38354;52.892;6.148;2024-03-23T05:23:40;4.80;99.90
52435;DHT22;38354;52.892;6.148;2024-03-23T05:26:05;4.80;99.90
52435;DHT22;38354;52.892;6.148;2024-03-23T05:28:31;4.80;99.90
52435;DHT22;38354;52.892;6.148;2024-03-23T05:30:57;4.90;99.90
52435;DHT22;38354;52.892;6.148;2024-03-23T05:33:22;4.90;99.90
52435;DHT22;38354;52.892;6.148;2024-03-23T05:35:57;4.90;99.90
52435;DHT22;38354;52.892;6.148;2024-03-23T05:38:23;4.90;99.90
52435;DHT22;38354;52.892;6.148;2024-03-23T05:40:55;5.00;99.90
52435;DHT22;38354;52.892;6.148;2024-03-23T05:43:21;5.00;99.90
52435;DHT22;38354;52.892;6.148;2024-03-23T05:45:56;5.00;99.90
52435;DHT22;38354;52.892;6.148;2024-03-23T05:48:22;5.00;99.90
52435;DHT22;38354;52.892;6.148;2024-03-23T05:50:49;4.90;99.90
52435;DHT22;38354;52.892;6.148;2024-03-23T05:53:16;4.90;99.90
52435;DHT22;38354;52.892;6.148;2024-03-23T05:55:42;4.90;99.90
52435;DHT22;38354;52.892;6.148;2024-03-23T05:58:08;5.00;99.90
52435;DHT22;38354;52.892;6.148;2024-03-23T06:00:34;5.00;99.90
52435;DHT22;38354;52.892;6.148;2024-03-23T06:03:00;5.00;99.90
52435;DHT22;38354;52.892;6.148;2024-03-23T06:05:26;5.10;99.90
52435;DHT22;38354;52.892;6.148;2024-03-23T06:07:51;5.10;99.90
52435;DHT22;38354;52.892;6.148;2024-03-23T06:10:18;5.10;99.90
52435;DHT22;38354;52.892;6.148;2024-03-23T06:12:43;5.20;99.90
52435;DHT22;38354;52.892;6.148;2024-03-23T06:15:11;5.20;99.90
52435;DHT22;38354;52.892;6.148;2024-03-23T06:17:37;5.20;99.90
52435;DHT22;38354;52.892;6.148;2024-03-23T06:20:03;5.30;99.90
52435;DHT22;38354;52.892;6.148;2024-03-23T06:22:29;5.40;99.90
52435;DHT22;38354;52.892;6.148;2024-03-23T06:24:55;5.50;99.90
52435;DHT22;38354;52.892;6.148;2024-03-23T06:27:23;5.50;99.90
52435;DHT22;38354;52.892;6.148;2024-03-23T06:29:49;5.50;99.90
52435;DHT22;38354;52.892;6.148;2024-03-23T06:32:15;5.50;99.90
52435;DHT22;38354;52.892;6.148;2024-03-23T06:34:44;5.50;99.90
52435;DHT22;38354;52.892;6.148;2024-03-23T06:37:11;5.50;99.90
52435;DHT22;38354;52.892;6.148;2024-03-23T06:39:37;5.50;99.90
52435;DHT22;38354;52.892;6.148;2024-03-23T06:42:04;5.50;99.90
52435;DHT22;38354;52.892;6.148;2024-03-23T06:44:29;5.50;99.90
52435;DHT22;38354;52.892;6.148;2024-03-23T06:46:56;5.60;99.90
52435;DHT22;38354;52.892;6.148;2024-03-23T06:49:22;5.70;99.90
52435;DHT22;38354;52.892;6.148;2024-03-23T06:51:48;5.80;99.90
52435;DHT22;38354;52.892;6.148;2024-03-23T06:54:13;5.80;99.90
52435;DHT22;38354;52.892;6.148;2024-03-23T06:56:40;5.90;99.90
52435;DHT22;38354;52.892;6.148;2024-03-23T07:03:00;5.80;99.90
52435;DHT22;38354;52.892;6.148;2024-03-23T07:36:48;4.60;99.90
52435;DHT22;38354;52.892;6.148;2024-03-23T07:42:40;4.50;99.90
52435;DHT22;38354;52.892;6.148;2024-03-23T07:49:13;4.50;99.90
52435;DHT22;38354;52.892;6.148;2024-03-23T07:51:42;4.60;99.90
52435;DHT22;38354;52.892;6.148;2024-03-23T07:54:26;4.50;99.90
52435;DHT22;38354;52.892;6.148;2024-03-23T08:03:41;4.20;99.90
52435;DHT22;38354;52.892;6.148;2024-03-23T08:06:08;4.30;99.90
52435;DHT22;38354;52.892;6.148;2024-03-23T08:08:34;4.40;99.90
52435;DHT22;38354;52.892;6.148;2024-03-23T08:11:00;4.50;99.90
52435;DHT22;38354;52.892;6.148;2024-03-23T08:13:26;4.60;99.90
52435;DHT22;38354;52.892;6.148;2024-03-23T08:15:52;4.80;99.90
52435;DHT22;38354;52.892;6.148;2024-03-23T08:18:24;5.00;99.90
52435;DHT22;38354;52.892;6.148;2024-03-23T08:21:03;5.20;99.90
52435;DHT22;38354;52.892;6.148;2024-03-23T08:23:30;5.40;99.90
52435;DHT22;38354;52.892;6.148;2024-03-23T08:28:36;5.70;99.90
52435;DHT22;38354;52.892;6.148;2024-03-23T08:31:19;5.90;99.90
52435;DHT22;38354;52.892;6.148;2024-03-23T08:42:00;6.00;99.90
52435;DHT22;38354;52.892;6.148;2024-03-23T08:44:26;6.00;99.90
52435;DHT22;38354;52.892;6.148;2024-03-23T08:46:51;6.00;99.90
52435;DHT22;38354;52.892;6.148;2024-03-23T08:52:23;5.90;99.90
52435;DHT22;38354;52.892;6.148;2024-03-23T08:54:51;6.00;99.90
52435;DHT22;38354;52.892;6.148;2024-03-23T08:57:16;6.60;99.90
52435;DHT22;38354;52.892;6.148;2024-03-23T08:59:42;7.40;99.90
52435;DHT22;38354;52.892;6.148;2024-03-23T09:02:07;7.70;99.90
52435;DHT22;38354;52.892;6.148;2024-03-23T09:04:33;8.00;99.90
52435;DHT22;38354;52.892;6.148;2024-03-23T09:06:59;8.20;99.90
52435;DHT22;38354;52.892;6.148;2024-03-23T09:09:25;8.20;99.90
52435;DHT22;38354;52.892;6.148;2024-03-23T09:11:51;7.80;99.90
52435;DHT22;38354;52.892;6.148;2024-03-23T09:14:16;7.40;99.90
52435;DHT22;38354;52.892;6.148;2024-03-23T09:16:50;7.10;99.90
52435;DHT22;38354;52.892;6.148;2024-03-23T09:19:21;6.80;99.90
52435;DHT22;38354;52.892;6.148;2024-03-23T09:21:52;6.70;99.90
52435;DHT22;38354;52.892;6.148;2024-03-23T09:24:17;6.60;99.90
52435;DHT22;38354;52.892;6.148;2024-03-23T09:27:05;6.50;99.90
52435;DHT22;38354;52.892;6.148;2024-03-23T09:29:32;6.40;99.90
52435;DHT22;38354;52.892;6.148;2024-03-23T09:34:46;6.30;99.90
52435;DHT22;38354;52.892;6.148;2024-03-23T09:37:11;6.00;99.90
52435;DHT22;38354;52.892;6.148;2024-03-23T09:39:37;6.00;99.90
52435;DHT22;38354;52.892;6.148;2024-03-23T09:42:04;5.90;99.90
52435;DHT22;38354;52.892;6.148;2024-03-23T09:44:30;6.00;99.90
52435;DHT22;38354;52.892;6.148;2024-03-23T09:47:05;6.30;99.90
52435;DHT22;38354;52.892;6.148;2024-03-23T09:49:34;6.50;99.90
52435;DHT22;38354;52.892;6.148;2024-03-23T09:52:02;6.40;99.90
52435;DHT22;38354;52.892;6.148;2024-03-23T09:54:28;5.80;99.90
52435;DHT22;38354;52.892;6.148;2024-03-23T09:56:54;5.30;99.90
52435;DHT22;38354;52.892;6.148;2024-03-23T09:59:20;5.20;99.90
52435;DHT22;38354;52.892;6.148;2024-03-23T10:01:45;5.20;99.90
52435;DHT22;38354;52.892;6.148;2024-03-23T10:04:38;5.30;99.90
52435;DHT22;38354;52.892;6.148;2024-03-23T10:07:12;5.60;99.90
52435;DHT22;38354;52.892;6.148;2024-03-23T10:09:49;5.90;99.90
52435;DHT22;38354;52.892;6.148;2024-03-23T10:12:34;6.20;99.90
52435;DHT22;38354;52.892;6.148;2024-03-23T10:15:00;6.60;99.90
52435;DHT22;38354;52.892;6.148;2024-03-23T10:17:25;7.00;99.90
52435;DHT22;38354;52.892;6.148;2024-03-23T10:19:52;7.20;99.90
52435;DHT22;38354;52.892;6.148;2024-03-23T10:22:22;7.40;99.90
52435;DHT22;38354;52.892;6.148;2024-03-23T10:24:49;7.70;99.90
52435;DHT22;38354;52.892;6.148;2024-03-23T10:27:19;7.50;99.90
52435;DHT22;38354;52.892;6.148;2024-03-23T10:29:48;6.90;99.90
52435;DHT22;38354;52.892;6.148;2024-03-23T10:32:18;6.50;99.90
52435;DHT22;38354;52.892;6.148;2024-03-23T10:34:44;6.10;99.90
52435;DHT22;38354;52.892;6.148;2024-03-23T10:37:10;5.70;99.90
52435;DHT22;38354;52.892;6.148;2024-03-23T10:39:40;5.50;99.90
52435;DHT22;38354;52.892;6.148;2024-03-23T10:42:08;5.40;99.90
52435;DHT22;38354;52.892;6.148;2024-03-23T10:44:34;5.40;99.90
52435;DHT22;38354;52.892;6.148;2024-03-23T10:47:04;5.40;99.90
52435;DHT22;38354;52.892;6.148;2024-03-23T10:49:34;5.50;99.90
52435;DHT22;38354;52.892;6.148;2024-03-23T10:52:02;5.60;99.90
52435;DHT22;38354;52.892;6.148;2024-03-23T10:54:27;5.80;99.90
52435;DHT22;38354;52.892;6.148;2024-03-23T10:57:05;5.90;99.90
52435;DHT22;38354;52.892;6.148;2024-03-23T10:59:32;5.80;99.90
52435;DHT22;38354;52.892;6.148;2024-03-23T11:02:00;5.80;99.90
52435;DHT22;38354;52.892;6.148;2024-03-23T11:04:37;6.00;99.90
52435;DHT22;38354;52.892;6.148;2024-03-23T11:09:54;6.60;99.90
52435;DHT22;38354;52.892;6.148;2024-03-23T11:28:19;7.50;99.90
52435;DHT22;38354;52.892;6.148;2024-03-23T11:34:42;8.10;99.90
52435;DHT22;38354;52.892;6.148;2024-03-23T11:37:07;8.60;99.90
52435;DHT22;38354;52.892;6.148;2024-03-23T11:39:38;8.40;99.90
52435;DHT22;38354;52.892;6.148;2024-03-23T11:42:07;8.20;99.90
52435;DHT22;38354;52.892;6.148;2024-03-23T11:44:42;8.10;99.90
52435;DHT22;38354;52.892;6.148;2024-03-23T11:47:08;7.90;99.90
52435;DHT22;38354;52.892;6.148;2024-03-23T11:49:37;7.70;99.90
52435;DHT22;38354;52.892;6.148;2024-03-23T11:52:06;7.60;99.90
52435;DHT22;38354;52.892;6.148;2024-03-23T11:54:33;7.80;99.90
52435;DHT22;38354;52.892;6.148;2024-03-23T11:57:00;8.00;99.90
52435;DHT22;38354;52.892;6.148;2024-03-23T11:59:39;8.30;99.90
52435;DHT22;38354;52.892;6.148;2024-03-23T12:02:07;8.20;99.90
52435;DHT22;38354;52.892;6.148;2024-03-23T12:04:33;8.40;99.90
52435;DHT22;38354;52.892;6.148;2024-03-23T12:07:18;8.30;99.90
52435;DHT22;38354;52.892;6.148;2024-03-23T12:10:06;8.10;99.90
52435;DHT22;38354;52.892;6.148;2024-03-23T12:12:32;7.80;99.90
52435;DHT22;38354;52.892;6.148;2024-03-23T12:15:05;7.30;99.90
52435;DHT22;38354;52.892;6.148;2024-03-23T12:17:32;7.20;99.90
52435;DHT22;38354;52.892;6.148;2024-03-23T12:19:57;7.10;99.90
52435;DHT22;38354;52.892;6.148;2024-03-23T12:22:24;7.60;99.90
52435;DHT22;38354;52.892;6.148;2024-03-23T12:24:50;7.70;99.90
52435;DHT22;38354;52.892;6.148;2024-03-23T12:27:16;8.00;99.90
52435;DHT22;38354;52.892;6.148;2024-03-23T12:29:42;8.00;99.90
52435;DHT22;38354;52.892;6.148;2024-03-23T12:32:12;8.00;99.90
52435;DHT22;38354;52.892;6.148;2024-03-23T12:34:37;8.00;99.90
52435;DHT22;38354;52.892;6.148;2024-03-23T12:37:07;8.10;99.90
52435;DHT22;38354;52.892;6.148;2024-03-23T12:39:35;8.20;99.90
52435;DHT22;38354;52.892;6.148;2024-03-23T12:42:02;8.60;99.90
52435;DHT22;38354;52.892;6.148;2024-03-23T12:44:30;8.90;99.90
52435;DHT22;38354;52.892;6.148;2024-03-23T12:46:57;9.20;99.90
52435;DHT22;38354;52.892;6.148;2024-03-23T12:49:32;9.40;99.90
52435;DHT22;38354;52.892;6.148;2024-03-23T12:51:57;9.60;99.90
52435;DHT22;38354;52.892;6.148;2024-03-23T12:54:24;9.80;99.90
52435;DHT22;38354;52.892;6.148;2024-03-23T12:56:56;9.90;99.90
52435;DHT22;38354;52.892;6.148;2024-03-23T12:59:22;10.10;99.90
52435;DHT22;38354;52.892;6.148;2024-03-23T13:01:48;10.00;99.90
52435;DHT22;38354;52.892;6.148;2024-03-23T13:04:13;10.20;99.90
52435;DHT22;38354;52.892;6.148;2024-03-23T13:06:39;9.90;99.90
52435;DHT22;38354;52.892;6.148;2024-03-23T13:09:05;9.70;99.90
52435;DHT22;38354;52.892;6.148;2024-03-23T13:11:31;9.80;99.90
52435;DHT22;38354;52.892;6.148;2024-03-23T13:14:17;10.10;99.90
52435;DHT22;38354;52.892;6.148;2024-03-23T13:16:53;10.70;99.90
52435;DHT22;38354;52.892;6.148;2024-03-23T13:19:18;10.90;99.90
52435;DHT22;38354;52.892;6.148;2024-03-23T13:21:44;11.00;99.90
52435;DHT22;38354;52.892;6.148;2024-03-23T13:24:10;10.50;99.90
52435;DHT22;38354;52.892;6.148;2024-03-23T13:26:36;10.00;99.90
52435;DHT22;38354;52.892;6.148;2024-03-23T13:29:02;9.60;99.90
52435;DHT22;38354;52.892;6.148;2024-03-23T13:31:27;9.10;99.90
52435;DHT22;38354;52.892;6.148;2024-03-23T13:33:53;8.70;99.90
52435;DHT22;38354;52.892;6.148;2024-03-23T13:36:18;8.40;99.90
52435;DHT22;38354;52.892;6.148;2024-03-23T13:38:44;8.20;99.90
52435;DHT22;38354;52.892;6.148;2024-03-23T13:41:10;8.20;99.90
52435;DHT22;38354;52.892;6.148;2024-03-23T13:43:38;8.10;99.90
52435;DHT22;38354;52.892;6.148;2024-03-23T13:46:03;8.10;99.90
52435;DHT22;38354;52.892;6.148;2024-03-23T13:48:29;8.10;99.90
52435;DHT22;38354;52.892;6.148;2024-03-23T13:51:02;8.00;99.90
52435;DHT22;38354;52.892;6.148;2024-03-23T13:53:28;8.00;99.90
52435;DHT22;38354;52.892;6.148;2024-03-23T13:56:00;8.20;99.90
52435;DHT22;38354;52.892;6.148;2024-03-23T13:58:26;8.10;99.90
52435;DHT22;38354;52.892;6.148;2024-03-23T14:00:52;8.20;99.90
52435;DHT22;38354;52.892;6.148;2024-03-23T14:03:18;8.10;99.90
52435;DHT22;38354;52.892;6.148;2024-03-23T14:05:46;8.10;99.90
52435;DHT22;38354;52.892;6.148;2024-03-23T14:08:15;8.10;99.90
52435;DHT22;38354;52.892;6.148;2024-03-23T14:10:41;8.20;99.90
52435;DHT22;38354;52.892;6.148;2024-03-23T14:13:07;8.10;99.90
52435;DHT22;38354;52.892;6.148;2024-03-23T14:15:33;8.10;99.90
52435;DHT22;38354;52.892;6.148;2024-03-23T14:17:59;8.40;99.90
52435;DHT22;38354;52.892;6.148;2024-03-23T14:20:25;8.40;99.90
52435;DHT22;38354;52.892;6.148;2024-03-23T14:22:51;8.30;99.90
52435;DHT22;38354;52.892;6.148;2024-03-23T14:25:17;7.90;99.90
52435;DHT22;38354;52.892;6.148;2024-03-23T14:27:46;7.50;99.90
52435;DHT22;38354;52.892;6.148;2024-03-23T14:30:13;7.10;99.90
52435;DHT22;38354;52.892;6.148;2024-03-23T14:32:39;6.90;99.90
52435;DHT22;38354;52.892;6.148;2024-03-23T14:35:06;6.70;99.90
52435;DHT22;38354;52.892;6.148;2024-03-23T14:37:32;6.70;99.90
52435;DHT22;38354;52.892;6.148;2024-03-23T14:39:58;6.80;99.90
52435;DHT22;38354;52.892;6.148;2024-03-23T14:42:25;7.20;99.90
52435;DHT22;38354;52.892;6.148;2024-03-23T14:44:53;7.60;99.90
52435;DHT22;38354;52.892;6.148;2024-03-23T14:47:19;8.10;99.90
52435;DHT22;38354;52.892;6.148;2024-03-23T14:49:46;8.60;99.90
52435;DHT22;38354;52.892;6.148;2024-03-23T14:52:19;9.00;99.90
52435;DHT22;38354;52.892;6.148;2024-03-23T14:54:45;9.00;99.90
52435;DHT22;38354;52.892;6.148;2024-03-23T14:57:12;9.30;99.90
52435;DHT22;38354;52.892;6.148;2024-03-23T14:59:37;9.50;99.90
52435;DHT22;38354;52.892;6.148;2024-03-23T15:02:04;9.70;99.90
52435;DHT22;38354;52.892;6.148;2024-03-23T15:04:30;9.50;99.90
52435;DHT22;38354;52.892;6.148;2024-03-23T15:06:56;9.10;99.90
52435;DHT22;38354;52.892;6.148;2024-03-23T15:09:21;8.40;99.90
52435;DHT22;38354;52.892;6.148;2024-03-23T15:11:47;7.70;99.90
52435;DHT22;38354;52.892;6.148;2024-03-23T15:14:13;7.20;99.90
52435;DHT22;38354;52.892;6.148;2024-03-23T15:16:38;7.00;99.90
52435;DHT22;38354;52.892;6.148;2024-03-23T15:19:04;6.90;99.90
52435;DHT22;38354;52.892;6.148;2024-03-23T15:21:32;6.90;99.90
52435;DHT22;38354;52.892;6.148;2024-03-23T15:23:57;6.70;99.90
52435;DHT22;38354;52.892;6.148;2024-03-23T15:26:23;6.80;99.90
52435;DHT22;38354;52.892;6.148;2024-03-23T15:28:49;6.90;99.90
52435;DHT22;38354;52.892;6.148;2024-03-23T15:31:24;7.00;99.90
52435;DHT22;38354;52.892;6.148;2024-03-23T15:33:50;7.10;99.90
52435;DHT22;38354;52.892;6.148;2024-03-23T15:36:16;7.40;99.90
52435;DHT22;38354;52.892;6.148;2024-03-23T15:38:43;7.80;99.90
52435;DHT22;38354;52.892;6.148;2024-03-23T15:41:09;8.10;99.90
52435;DHT22;38354;52.892;6.148;2024-03-23T15:43:34;8.00;99.90
52435;DHT22;38354;52.892;6.148;2024-03-23T15:46:04;8.00;99.90
52435;DHT22;38354;52.892;6.148;2024-03-23T15:48:32;8.00;99.90
52435;DHT22;38354;52.892;6.148;2024-03-23T15:51:02;8.00;99.90
52435;DHT22;38354;52.892;6.148;2024-03-23T15:53:29;7.50;99.90
52435;DHT22;38354;52.892;6.148;2024-03-23T15:56:00;7.30;99.90
52435;DHT22;38354;52.892;6.148;2024-03-23T15:58:26;7.10;99.90
52435;DHT22;38354;52.892;6.148;2024-03-23T16:00:56;7.10;99.90
52435;DHT22;38354;52.892;6.148;2024-03-23T16:03:22;7.40;99.90
52435;DHT22;38354;52.892;6.148;2024-03-23T16:05:55;8.00;99.90
52435;DHT22;38354;52.892;6.148;2024-03-23T16:08:22;8.40;99.90
52435;DHT22;38354;52.892;6.148;2024-03-23T16:10:48;8.50;99.90
52435;DHT22;38354;52.892;6.148;2024-03-23T16:13:14;8.80;99.90
52435;DHT22;38354;52.892;6.148;2024-03-23T16:15:40;9.00;99.90
52435;DHT22;38354;52.892;6.148;2024-03-23T16:18:06;9.20;99.90
52435;DHT22;38354;52.892;6.148;2024-03-23T16:20:32;9.00;99.90
52435;DHT22;38354;52.892;6.148;2024-03-23T16:23:01;8.60;99.90
52435;DHT22;38354;52.892;6.148;2024-03-23T16:25:27;8.40;99.90
52435;DHT22;38354;52.892;6.148;2024-03-23T16:27:53;8.60;99.90
52435;DHT22;38354;52.892;6.148;2024-03-23T16:30:19;8.90;99.90
52435;DHT22;38354;52.892;6.148;2024-03-23T16:32:46;8.90;99.90
52435;DHT22;38354;52.892;6.148;2024-03-23T16:35:15;8.90;99.90
52435;DHT22;38354;52.892;6.148;2024-03-23T16:37:41;9.00;99.90
52435;DHT22;38354;52.892;6.148;2024-03-23T16:40:07;8.70;99.90
52435;DHT22;38354;52.892;6.148;2024-03-23T16:42:35;8.50;99.90
52435;DHT22;38354;52.892;6.148;2024-03-23T16:45:01;8.20;99.90
52435;DHT22;38354;52.892;6.148;2024-03-23T16:47:27;8.00;99.90
52435;DHT22;38354;52.892;6.148;2024-03-23T16:49:55;7.80;99.90
52435;DHT22;38354;52.892;6.148;2024-03-23T16:52:22;7.70;99.90
52435;DHT22;38354;52.892;6.148;2024-03-23T16:54:47;7.50;99.90
52435;DHT22;38354;52.892;6.148;2024-03-23T16:57:13;7.50;99.90
52435;DHT22;38354;52.892;6.148;2024-03-23T16:59:39;7.40;99.90
52435;DHT22;38354;52.892;6.148;2024-03-23T17:02:05;7.30;99.90
52435;DHT22;38354;52.892;6.148;2024-03-23T17:04:30;7.20;99.90
52435;DHT22;38354;52.892;6.148;2024-03-23T17:06:56;6.90;99.90
52435;DHT22;38354;52.892;6.148;2024-03-23T17:09:21;6.70;99.90
52435;DHT22;38354;52.892;6.148;2024-03-23T17:11:47;6.60;99.90
52435;DHT22;38354;52.892;6.148;2024-03-23T17:14:14;6.60;99.90
52435;DHT22;38354;52.892;6.148;2024-03-23T17:16:41;6.50;99.90
52435;DHT22;38354;52.892;6.148;2024-03-23T17:19:07;6.40;99.90
52435;DHT22;38354;52.892;6.148;2024-03-23T17:21:34;6.50;99.90
52435;DHT22;38354;52.892;6.148;2024-03-23T17:24:00;6.40;99.90
52435;DHT22;38354;52.892;6.148;2024-03-23T17:26:26;6.30;99.90
52435;DHT22;38354;52.892;6.148;2024-03-23T17:28:51;6.30;99.90
52435;DHT22;38354;52.892;6.148;2024-03-23T17:31:20;6.20;99.90
52435;DHT22;38354;52.892;6.148;2024-03-23T17:33:50;6.20;99.90
52435;DHT22;38354;52.892;6.148;2024-03-23T17:36:17;6.10;99.90
52435;DHT22;38354;52.892;6.148;2024-03-23T17:38:46;6.10;99.90
52435;DHT22;38354;52.892;6.148;2024-03-23T17:41:12;6.00;99.90
52435;DHT22;38354;52.892;6.148;2024-03-23T17:43:37;6.10;99.90
52435;DHT22;38354;52.892;6.148;2024-03-23T17:46:03;6.00;99.90
52435;DHT22;38354;52.892;6.148;2024-03-23T17:48:30;6.00;99.90
52435;DHT22;38354;52.892;6.148;2024-03-23T17:51:05;5.90;99.90
52435;DHT22;38354;52.892;6.148;2024-03-23T17:53:36;5.90;99.90
52435;DHT22;38354;52.892;6.148;2024-03-23T17:56:04;5.80;99.90
52435;DHT22;38354;52.892;6.148;2024-03-23T17:58:30;5.80;99.90
52435;DHT22;38354;52.892;6.148;2024-03-23T18:00:56;5.80;99.90
52435;DHT22;38354;52.892;6.148;2024-03-23T18:03:22;5.80;99.90
52435;DHT22;38354;52.892;6.148;2024-03-23T18:05:48;5.70;99.90
52435;DHT22;38354;52.892;6.148;2024-03-23T18:08:13;5.70;99.90
52435;DHT22;38354;52.892;6.148;2024-03-23T18:10:39;5.70;99.90
52435;DHT22;38354;52.892;6.148;2024-03-23T18:13:05;5.70;99.90
52435;DHT22;38354;52.892;6.148;2024-03-23T18:15:30;5.70;99.90
52435;DHT22;38354;52.892;6.148;2024-03-23T18:17:56;5.70;99.90
52435;DHT22;38354;52.892;6.148;2024-03-23T18:20:21;5.80;99.90
52435;DHT22;38354;52.892;6.148;2024-03-23T18:22:47;5.80;99.90
52435;DHT22;38354;52.892;6.148;2024-03-23T18:25:13;5.80;99.90
52435;DHT22;38354;52.892;6.148;2024-03-23T18:27:38;5.80;99.90
52435;DHT22;38354;52.892;6.148;2024-03-23T18:30:04;5.80;99.90
52435;DHT22;38354;52.892;6.148;2024-03-23T18:32:31;5.80;99.90
52435;DHT22;38354;52.892;6.148;2024-03-23T18:34:56;5.80;99.90
52435;DHT22;38354;52.892;6.148;2024-03-23T18:37:22;5.70;99.90
52435;DHT22;38354;52.892;6.148;2024-03-23T18:39:47;5.60;99.90
52435;DHT22;38354;52.892;6.148;2024-03-23T18:42:13;5.60;99.90
52435;DHT22;38354;52.892;6.148;2024-03-23T18:44:39;5.50;99.90
52435;DHT22;38354;52.892;6.148;2024-03-23T18:47:04;5.50;99.90
52435;DHT22;38354;52.892;6.148;2024-03-23T18:49:30;5.40;99.90
52435;DHT22;38354;52.892;6.148;2024-03-23T18:51:55;5.40;99.90
52435;DHT22;38354;52.892;6.148;2024-03-23T18:54:21;5.30;99.90
52435;DHT22;38354;52.892;6.148;2024-03-23T18:56:47;5.30;99.90
52435;DHT22;38354;52.892;6.148;2024-03-23T18:59:13;5.30;99.90
52435;DHT22;38354;52.892;6.148;2024-03-23T19:01:38;5.30;99.90
52435;DHT22;38354;52.892;6.148;2024-03-23T19:04:05;5.30;99.90
52435;DHT22;38354;52.892;6.148;2024-03-23T19:06:31;5.40;99.90
52435;DHT22;38354;52.892;6.148;2024-03-23T19:08:56;5.40;99.90
52435;DHT22;38354;52.892;6.148;2024-03-23T19:11:22;5.50;99.90
52435;DHT22;38354;52.892;6.148;2024-03-23T19:13:48;5.50;99.90
52435;DHT22;38354;52.892;6.148;2024-03-23T19:16:13;5.50;99.90
52435;DHT22;38354;52.892;6.148;2024-03-23T19:18:40;5.50;99.90
52435;DHT22;38354;52.892;6.148;2024-03-23T19:21:05;5.50;99.90
52435;DHT22;38354;52.892;6.148;2024-03-23T19:23:31;5.50;99.90
52435;DHT22;38354;52.892;6.148;2024-03-23T19:26:00;5.60;99.90
52435;DHT22;38354;52.892;6.148;2024-03-23T19:28:27;5.60;99.90
52435;DHT22;38354;52.892;6.148;2024-03-23T19:30:54;5.50;99.90
52435;DHT22;38354;52.892;6.148;2024-03-23T19:33:20;5.50;99.90
52435;DHT22;38354;52.892;6.148;2024-03-23T19:35:46;5.50;99.90
52435;DHT22;38354;52.892;6.148;2024-03-23T19:38:13;5.50;99.90
52435;DHT22;38354;52.892;6.148;2024-03-23T19:40:39;5.50;99.90
52435;DHT22;38354;52.892;6.148;2024-03-23T19:43:04;5.50;99.90
52435;DHT22;38354;52.892;6.148;2024-03-23T19:45:33;5.50;99.90
52435;DHT22;38354;52.892;6.148;2024-03-23T19:48:00;5.50;99.90
52435;DHT22;38354;52.892;6.148;2024-03-23T19:50:26;5.50;99.90
52435;DHT22;38354;52.892;6.148;2024-03-23T19:52:52;5.50;99.90
52435;DHT22;38354;52.892;6.148;2024-03-23T19:55:17;5.50;99.90
52435;DHT22;38354;52.892;6.148;2024-03-23T19:57:46;5.50;99.90
52435;DHT22;38354;52.892;6.148;2024-03-23T20:00:13;5.50;99.90
52435;DHT22;38354;52.892;6.148;2024-03-23T20:02:39;5.50;99.90
52435;DHT22;38354;52.892;6.148;2024-03-23T20:05:05;5.50;99.90
52435;DHT22;38354;52.892;6.148;2024-03-23T20:07:31;5.50;99.90
52435;DHT22;38354;52.892;6.148;2024-03-23T20:09:57;5.50;99.90
52435;DHT22;38354;52.892;6.148;2024-03-23T20:12:22;5.60;99.90
52435;DHT22;38354;52.892;6.148;2024-03-23T20:14:48;5.50;99.90
52435;DHT22;38354;52.892;6.148;2024-03-23T20:17:13;5.50;99.90
52435;DHT22;38354;52.892;6.148;2024-03-23T20:19:39;5.50;99.90
52435;DHT22;38354;52.892;6.148;2024-03-23T20:22:05;5.40;99.90
52435;DHT22;38354;52.892;6.148;2024-03-23T20:24:31;5.50;99.90
52435;DHT22;38354;52.892;6.148;2024-03-23T20:26:57;5.50;99.90
52435;DHT22;38354;52.892;6.148;2024-03-23T20:29:22;5.40;99.90
52435;DHT22;38354;52.892;6.148;2024-03-23T20:31:48;5.40;99.90
52435;DHT22;38354;52.892;6.148;2024-03-23T20:34:14;5.50;99.90
52435;DHT22;38354;52.892;6.148;2024-03-23T20:36:39;5.30;99.90
52435;DHT22;38354;52.892;6.148;2024-03-23T20:39:05;5.30;99.90
52435;DHT22;38354;52.892;6.148;2024-03-23T20:41:31;5.30;99.90
52435;DHT22;38354;52.892;6.148;2024-03-23T20:43:56;5.20;99.90
52435;DHT22;38354;52.892;6.148;2024-03-23T20:46:22;5.20;99.90
52435;DHT22;38354;52.892;6.148;2024-03-23T20:48:49;5.10;99.90
52435;DHT22;38354;52.892;6.148;2024-03-23T20:51:16;5.10;99.90
52435;DHT22;38354;52.892;6.148;2024-03-23T20:53:42;5.10;99.90
52435;DHT22;38354;52.892;6.148;2024-03-23T20:56:08;5.10;99.90
52435;DHT22;38354;52.892;6.148;2024-03-23T20:58:34;5.00;99.90
52435;DHT22;38354;52.892;6.148;2024-03-23T21:01:01;5.10;99.90
52435;DHT22;38354;52.892;6.148;2024-03-23T21:03:27;5.00;99.90
52435;DHT22;38354;52.892;6.148;2024-03-23T21:05:53;5.00;99.90
52435;DHT22;38354;52.892;6.148;2024-03-23T21:08:19;5.10;99.90
52435;DHT22;38354;52.892;6.148;2024-03-23T21:10:49;5.10;99.90
52435;DHT22;38354;52.892;6.148;2024-03-23T21:13:15;5.10;99.90
52435;DHT22;38354;52.892;6.148;2024-03-23T21:15:48;5.10;99.90
52435;DHT22;38354;52.892;6.148;2024-03-23T21:18:14;5.10;99.90
52435;DHT22;38354;52.892;6.148;2024-03-23T21:20:40;5.10;99.90
52435;DHT22;38354;52.892;6.148;2024-03-23T21:23:06;5.10;99.90
52435;DHT22;38354;52.892;6.148;2024-03-23T21:25:33;5.10;99.90
52435;DHT22;38354;52.892;6.148;2024-03-23T21:27:58;5.10;99.90
52435;DHT22;38354;52.892;6.148;2024-03-23T21:30:24;5.10;99.90
52435;DHT22;38354;52.892;6.148;2024-03-23T21:32:50;5.10;99.90
52435;DHT22;38354;52.892;6.148;2024-03-23T21:35:16;5.10;99.90
52435;DHT22;38354;52.892;6.148;2024-03-23T21:37:41;5.10;99.90
52435;DHT22;38354;52.892;6.148;2024-03-23T21:40:08;5.10;99.90
52435;DHT22;38354;52.892;6.148;2024-03-23T21:42:37;5.20;99.90
52435;DHT22;38354;52.892;6.148;2024-03-23T21:45:04;5.20;99.90
52435;DHT22;38354;52.892;6.148;2024-03-23T21:47:30;5.20;99.90
52435;DHT22;38354;52.892;6.148;2024-03-23T21:49:56;5.30;99.90
52435;DHT22;38354;52.892;6.148;2024-03-23T21:52:22;5.30;99.90
52435;DHT22;38354;52.892;6.148;2024-03-23T21:54:47;5.40;99.90
52435;DHT22;38354;52.892;6.148;2024-03-23T21:57:13;5.40;99.90
52435;DHT22;38354;52.892;6.148;2024-03-23T21:59:39;5.40;99.90
52435;DHT22;38354;52.892;6.148;2024-03-23T22:02:05;5.40;99.90
52435;DHT22;38354;52.892;6.148;2024-03-23T22:04:32;5.50;99.90
52435;DHT22;38354;52.892;6.148;2024-03-23T22:06:57;5.50;99.90
52435;DHT22;38354;52.892;6.148;2024-03-23T22:09:23;5.50;99.90
52435;DHT22;38354;52.892;6.148;2024-03-23T22:11:49;5.50;99.90
52435;DHT22;38354;52.892;6.148;2024-03-23T22:14:15;5.50;99.90